createdAt,value
2019-06-01T00:01:51.664Z,56.74
2019-06-01T00:04:22.996Z,56.79
2019-06-01T00:06:54.149Z,56.86
2019-06-01T00:09:25.340Z,56.97
2019-06-01T00:11:56.541Z,57.02
2019-06-01T00:14:27.745Z,57.06
2019-06-01T00:16:59.001Z,57.13
2019-06-01T00:19:30.188Z,57.14
2019-06-01T00:22:01.413Z,57.11
2019-06-01T00:24:32.633Z,57.47
2019-06-01T00:27:03.881Z,57.83
2019-06-01T00:29:35.072Z,57.74
2019-06-01T00:32:06.334Z,57.65
2019-06-01T00:34:37.530Z,57.57
2019-06-01T00:37:08.681Z,57.57
2019-06-01T00:39:39.908Z,57.60
2019-06-01T00:42:11.097Z,57.62
2019-06-01T00:44:42.370Z,57.60
2019-06-01T00:47:13.635Z,57.61
2019-06-01T00:49:44.834Z,57.63
2019-06-01T00:52:16.038Z,57.68
2019-06-01T00:54:47.392Z,57.72
2019-06-01T00:57:22.130Z,57.77
2019-06-01T00:59:54.629Z,57.76
2019-06-01T01:02:25.436Z,57.78
2019-06-01T01:05:06.302Z,57.84
2019-06-01T01:07:38.306Z,57.81
2019-06-01T01:10:09.597Z,57.81
2019-06-01T01:12:58.775Z,57.88
2019-06-01T01:15:29.983Z,57.93
2019-06-01T01:18:01.278Z,57.92
2019-06-01T01:20:32.557Z,57.94
2019-06-01T01:23:03.801Z,57.97
2019-06-01T01:25:35.121Z,57.96
2019-06-01T01:28:06.399Z,57.96
2019-06-01T01:30:37.559Z,57.93
2019-06-01T01:33:08.759Z,57.99
2019-06-01T01:35:39.972Z,57.99
2019-06-01T01:38:13.245Z,58.05
2019-06-01T01:40:44.427Z,58.06
2019-06-01T01:43:15.651Z,58.07
2019-06-01T01:45:46.837Z,58.14
2019-06-01T01:48:18.041Z,58.13
2019-06-01T01:50:50.235Z,58.11
2019-06-01T01:53:21.600Z,58.16
2019-06-01T01:55:52.976Z,58.20
2019-06-01T01:58:24.368Z,58.23
2019-06-01T02:00:56.815Z,58.27
2019-06-01T02:03:28.512Z,58.32
2019-06-01T02:05:59.760Z,58.29
2019-06-01T02:08:38.611Z,58.31
2019-06-01T02:11:10.022Z,58.28
2019-06-01T02:13:41.367Z,58.27
2019-06-01T02:16:13.201Z,58.22
2019-06-01T02:18:44.591Z,58.22
2019-06-01T02:21:15.944Z,58.19
2019-06-01T02:23:47.244Z,58.16
2019-06-01T02:26:18.627Z,58.12
2019-06-01T02:28:50.031Z,58.08
2019-06-01T02:31:37.474Z,58.05
2019-06-01T02:33:56.125Z,58.03
2019-06-01T02:36:58.383Z,58.04
2019-06-01T02:43:01.508Z,58.05
2019-06-01T02:45:33.239Z,58.06
2019-06-01T02:48:07.022Z,58.09
2019-06-01T02:50:38.361Z,58.11
2019-06-01T02:53:09.809Z,58.13
2019-06-01T02:55:41.177Z,58.18
2019-06-01T02:58:12.572Z,58.20
2019-06-01T03:01:29.318Z,58.21
2019-06-01T03:04:01.357Z,58.26
2019-06-01T03:06:33.321Z,58.28
2019-06-01T03:09:08.861Z,58.28
2019-06-01T03:11:41.211Z,58.30
2019-06-01T03:14:13.279Z,58.35
2019-06-01T03:16:44.655Z,58.36
2019-06-01T03:19:17.700Z,58.37
2019-06-01T03:21:50.843Z,58.41
2019-06-01T03:24:26.131Z,58.42
2019-06-01T03:26:57.522Z,58.43
2019-06-01T03:29:31.430Z,58.48
2019-06-01T03:32:24.089Z,58.50
2019-06-01T03:34:35.709Z,58.54
2019-06-01T03:37:07.149Z,58.59
2019-06-01T03:39:38.684Z,58.61
2019-06-01T03:42:11.610Z,58.74
2019-06-01T03:44:42.921Z,58.78
2019-06-01T03:47:14.252Z,58.81
2019-06-01T03:49:45.522Z,58.82
2019-06-01T03:52:16.958Z,58.97
2019-06-01T03:54:48.750Z,58.99
2019-06-01T03:57:20.132Z,59.08
2019-06-01T03:59:51.514Z,59.16
2019-06-01T04:02:32.826Z,59.21
2019-06-01T04:04:56.978Z,59.19
2019-06-01T04:07:28.300Z,59.24
2019-06-01T04:09:59.624Z,59.24
2019-06-01T04:12:31.046Z,59.24
2019-06-01T04:15:08.419Z,59.25
2019-06-01T04:17:35.593Z,59.23
2019-06-01T04:20:08.193Z,59.19
2019-06-01T04:22:39.627Z,59.11
2019-06-01T04:25:12.224Z,59.12
2019-06-01T04:27:44.605Z,59.16
2019-06-01T04:30:15.986Z,59.16
2019-06-01T04:32:50.355Z,59.15
2019-06-01T04:35:20.382Z,59.14
2019-06-01T04:37:51.858Z,59.15
2019-06-01T04:40:23.207Z,59.12
2019-06-01T04:42:54.494Z,59.08
2019-06-01T04:45:25.814Z,59.02
2019-06-01T04:47:57.150Z,58.98
2019-06-01T04:50:28.458Z,58.88
2019-06-01T04:52:59.999Z,58.82
2019-06-01T04:55:31.349Z,58.76
2019-06-01T04:58:02.684Z,58.67
2019-06-01T05:00:34.135Z,58.60
2019-06-01T05:03:08.729Z,58.55
2019-06-01T05:05:39.560Z,58.49
2019-06-01T05:08:12.562Z,58.49
2019-06-01T05:10:43.939Z,58.54
2019-06-01T05:13:15.709Z,58.45
2019-06-01T05:15:47.401Z,58.37
2019-06-01T05:18:19.720Z,58.33
2019-06-01T05:20:51.247Z,58.27
2019-06-01T05:23:22.759Z,58.19
2019-06-01T05:25:54.107Z,58.11
2019-06-01T05:28:25.535Z,58.00
2019-06-01T05:30:56.833Z,57.97
2019-06-01T05:33:36.839Z,57.87
2019-06-01T05:36:01.239Z,57.80
2019-06-01T05:38:32.742Z,57.71
2019-06-01T05:41:04.104Z,57.60
2019-06-01T05:43:35.497Z,57.48
2019-06-01T05:46:06.824Z,57.42
2019-06-01T05:48:38.098Z,57.31
2019-06-01T05:51:12.522Z,57.31
2019-06-01T05:53:42.454Z,57.15
2019-06-01T05:56:14.748Z,57.03
2019-06-01T05:58:46.387Z,56.90
2019-06-01T06:01:19.657Z,56.77
2019-06-01T06:03:50.720Z,56.76
2019-06-01T06:06:22.177Z,56.69
2019-06-01T06:08:53.525Z,56.66
2019-06-01T06:11:24.804Z,56.61
2019-06-01T06:13:57.987Z,56.54
2019-06-01T06:16:29.394Z,56.49
2019-06-01T06:19:00.717Z,56.42
2019-06-01T06:21:32.019Z,56.33
2019-06-01T06:24:03.315Z,56.26
2019-06-01T06:26:34.641Z,56.21
2019-06-01T06:29:06.067Z,56.16
2019-06-01T06:31:37.474Z,56.12
2019-06-01T06:34:08.886Z,56.01
2019-06-01T06:36:40.227Z,55.95
2019-06-01T06:39:11.640Z,55.84
2019-06-01T06:41:43.097Z,55.68
2019-06-01T06:44:14.672Z,55.50
2019-06-01T06:46:47.815Z,55.30
2019-06-01T06:49:19.261Z,55.09
2019-06-01T06:51:50.657Z,54.76
2019-06-01T06:54:22.022Z,54.51
2019-06-01T06:56:53.393Z,54.33
2019-06-01T06:59:24.692Z,53.96
2019-06-01T07:01:56.179Z,53.70
2019-06-01T07:04:27.601Z,53.58
2019-06-01T07:06:58.986Z,53.41
2019-06-01T07:09:30.324Z,53.22
2019-06-01T07:12:02.521Z,53.03
2019-06-01T07:14:34.910Z,52.84
2019-06-01T07:17:06.370Z,52.67
2019-06-01T07:19:37.720Z,52.35
2019-06-01T07:22:09.179Z,52.23
2019-06-01T07:24:40.512Z,51.97
2019-06-01T07:27:11.828Z,51.87
2019-06-01T07:29:43.203Z,50.30
2019-06-01T07:32:14.538Z,50.91
2019-06-01T07:34:46.504Z,50.93
2019-06-01T07:37:17.886Z,51.02
2019-06-01T07:39:49.244Z,50.90
2019-06-01T07:42:24.498Z,50.86
2019-06-01T07:44:53.600Z,50.81
2019-06-01T07:47:25.064Z,49.15
2019-06-01T07:49:56.451Z,49.67
2019-06-01T07:52:28.282Z,49.79
2019-06-01T07:54:59.740Z,49.87
2019-06-01T07:57:31.775Z,49.89
2019-06-01T08:00:03.207Z,49.92
2019-06-01T08:02:34.830Z,49.78
2019-06-01T08:05:06.639Z,49.69
2019-06-01T08:07:38.143Z,49.66
2019-06-01T08:10:09.625Z,49.58
2019-06-01T08:12:40.790Z,49.59
2019-06-01T08:15:12.173Z,49.29
2019-06-01T08:17:43.575Z,49.12
2019-06-01T08:20:14.843Z,48.98
2019-06-01T08:22:46.087Z,48.91
2019-06-01T08:25:17.400Z,48.77
2019-06-01T08:27:48.700Z,48.70
2019-06-01T08:30:19.909Z,48.65
2019-06-01T08:32:51.214Z,48.39
2019-06-01T08:35:22.903Z,48.44
2019-06-01T08:37:54.232Z,48.26
2019-06-01T08:40:25.498Z,48.25
2019-06-01T08:42:57.794Z,48.18
2019-06-01T08:45:29.673Z,48.03
2019-06-01T08:48:01.092Z,48.03
2019-06-01T08:50:32.343Z,46.25
2019-06-01T08:53:03.666Z,46.83
2019-06-01T08:55:35.013Z,46.98
2019-06-01T08:58:06.636Z,46.98
2019-06-01T09:00:37.866Z,47.02
2019-06-01T09:03:09.107Z,47.09
2019-06-01T09:05:40.475Z,47.15
2019-06-01T09:08:11.800Z,47.08
2019-06-01T09:10:42.983Z,46.85
2019-06-01T09:13:14.197Z,46.76
2019-06-01T09:15:45.424Z,46.68
2019-06-01T09:18:16.678Z,46.64
2019-06-01T09:20:48.064Z,46.42
2019-06-01T09:23:19.411Z,46.47
2019-06-01T09:25:50.765Z,46.40
2019-06-01T09:28:22.030Z,46.29
2019-06-01T09:30:53.254Z,46.27
2019-06-01T09:33:24.492Z,46.15
2019-06-01T09:35:56.551Z,46.00
2019-06-01T09:38:28.031Z,45.92
2019-06-01T09:41:00.458Z,46.01
2019-06-01T09:43:32.803Z,46.02
2019-06-01T09:46:04.036Z,45.95
2019-06-01T09:48:35.703Z,45.84
2019-06-01T09:51:07.106Z,45.93
2019-06-01T09:53:38.334Z,45.87
2019-06-01T09:56:09.530Z,45.81
2019-06-01T09:58:40.984Z,45.72
2019-06-01T10:01:12.338Z,45.58
2019-06-01T10:03:43.767Z,45.43
2019-06-01T10:06:15.051Z,44.00
2019-06-01T10:08:46.349Z,43.08
2019-06-01T10:11:17.668Z,42.57
2019-06-01T10:13:48.934Z,43.24
2019-06-01T10:16:21.226Z,42.14
2019-06-01T10:18:52.412Z,42.94
2019-06-01T10:21:23.671Z,43.25
2019-06-01T10:23:54.995Z,43.34
2019-06-01T10:26:26.209Z,42.18
2019-06-01T10:28:57.386Z,41.62
2019-06-01T10:31:28.618Z,42.29
2019-06-01T10:33:59.882Z,42.61
2019-06-01T10:36:31.921Z,42.85
2019-06-01T10:39:03.738Z,42.89
2019-06-01T10:41:35.322Z,43.00
2019-06-01T10:44:07.043Z,43.03
2019-06-01T10:46:38.212Z,42.99
2019-06-01T10:49:09.444Z,43.03
2019-06-01T10:51:40.627Z,42.96
2019-06-01T10:54:12.002Z,42.88
2019-06-01T10:56:43.233Z,42.93
2019-06-01T10:59:14.739Z,42.99
2019-06-01T11:01:45.960Z,42.97
2019-06-01T11:04:17.771Z,43.00
2019-06-01T11:06:49.439Z,43.04
2019-06-01T11:09:20.842Z,43.12
2019-06-01T11:11:52.021Z,43.16
2019-06-01T11:14:23.252Z,43.16
2019-06-01T11:16:56.452Z,43.21
2019-06-01T11:19:27.568Z,43.14
2019-06-01T11:21:58.718Z,43.07
2019-06-01T11:24:29.905Z,42.99
2019-06-01T11:27:01.070Z,42.88
2019-06-01T11:29:34.550Z,42.78
2019-06-01T11:32:05.119Z,42.60
2019-06-01T11:34:36.612Z,42.46
2019-06-01T11:37:08.443Z,42.36
2019-06-01T11:39:40.579Z,42.32
2019-06-01T11:42:12.893Z,42.12
2019-06-01T11:44:44.919Z,42.15
2019-06-01T11:47:16.301Z,41.91
2019-06-01T11:49:47.568Z,41.78
2019-06-01T11:52:18.758Z,41.69
2019-06-01T11:54:49.970Z,41.78
2019-06-01T11:57:21.142Z,41.80
2019-06-01T11:59:52.370Z,41.89
2019-06-01T12:02:23.664Z,41.94
2019-06-01T12:04:55.805Z,41.86
2019-06-01T12:07:27.053Z,41.62
2019-06-01T12:09:58.286Z,41.48
2019-06-01T12:12:29.513Z,41.49
2019-06-01T12:15:00.680Z,41.38
2019-06-01T12:17:31.850Z,41.37
2019-06-01T12:20:03.073Z,41.27
2019-06-01T12:22:34.232Z,41.14
2019-06-01T12:25:05.794Z,41.10
2019-06-01T12:27:39.408Z,40.94
2019-06-01T12:30:11.328Z,40.78
2019-06-01T12:32:42.809Z,40.62
2019-06-01T12:35:15.870Z,40.39
2019-06-01T12:38:02.771Z,40.32
2019-06-01T12:40:20.246Z,40.30
2019-06-01T12:42:52.009Z,40.21
2019-06-01T12:45:23.567Z,40.11
2019-06-01T12:47:58.363Z,40.05
2019-06-01T12:50:27.731Z,39.91
2019-06-01T12:52:58.915Z,39.87
2019-06-01T12:55:30.139Z,39.74
2019-06-01T12:58:01.383Z,39.62
2019-06-01T13:00:32.582Z,39.63
2019-06-01T13:03:07.663Z,39.43
2019-06-01T13:05:36.970Z,39.12
2019-06-01T13:08:08.165Z,39.21
2019-06-01T13:10:39.528Z,39.16
2019-06-01T13:13:10.762Z,39.09
2019-06-01T13:15:43.229Z,39.07
2019-06-01T13:18:14.540Z,39.03
2019-06-01T13:20:45.805Z,39.11
2019-06-01T13:23:16.984Z,38.91
2019-06-01T13:25:48.169Z,38.97
2019-06-01T13:28:19.464Z,38.83
2019-06-01T13:30:51.133Z,38.53
2019-06-01T13:33:22.821Z,38.44
2019-06-01T13:35:53.984Z,38.41
2019-06-01T13:38:25.248Z,38.34
2019-06-01T13:40:56.455Z,38.37
2019-06-01T13:43:27.639Z,38.16
2019-06-01T13:45:58.878Z,38.11
2019-06-01T13:48:30.067Z,37.86
2019-06-01T13:51:01.227Z,37.84
2019-06-01T13:53:32.457Z,37.73
2019-06-01T13:56:03.615Z,37.60
2019-06-01T13:58:35.884Z,37.47
2019-06-01T14:01:07.070Z,37.38
2019-06-01T14:03:40.166Z,37.31
2019-06-01T14:06:11.377Z,37.32
2019-06-01T14:08:42.680Z,37.37
2019-06-01T14:11:13.866Z,37.26
2019-06-01T14:13:45.366Z,37.24
2019-06-01T14:16:16.578Z,37.19
2019-06-01T14:18:47.899Z,37.16
2019-06-01T14:21:19.089Z,36.87
2019-06-01T14:23:51.878Z,37.08
2019-06-01T14:26:23.192Z,37.08
2019-06-01T14:28:54.461Z,36.97
2019-06-01T14:31:25.740Z,36.83
2019-06-01T14:33:57.148Z,36.66
2019-06-01T14:36:28.619Z,36.59
2019-06-01T14:39:00.314Z,36.47
2019-06-01T14:41:32.031Z,36.38
2019-06-01T14:44:03.271Z,36.38
2019-06-01T14:46:52.470Z,36.11
2019-06-01T14:49:08.774Z,35.91
2019-06-01T14:51:40.118Z,35.86
2019-06-01T14:54:11.364Z,35.66
2019-06-01T14:56:42.787Z,35.52
2019-06-01T14:59:14.065Z,35.33
2019-06-01T15:01:45.494Z,35.22
2019-06-01T15:04:17.912Z,35.25
2019-06-01T15:06:50.222Z,34.97
2019-06-01T15:09:21.599Z,34.77
2019-06-01T15:11:52.802Z,34.75
2019-06-01T15:14:24.069Z,34.68
2019-06-01T15:16:57.922Z,34.48
2019-06-01T15:19:29.715Z,34.38
2019-06-01T15:22:01.035Z,34.33
2019-06-01T15:24:32.361Z,34.04
2019-06-01T15:27:03.604Z,34.03
2019-06-01T15:29:35.058Z,33.88
2019-06-01T15:32:06.246Z,33.84
2019-06-01T15:34:37.650Z,33.61
2019-06-01T15:37:09.608Z,33.71
2019-06-01T15:39:41.084Z,33.47
2019-06-01T15:42:12.305Z,33.68
2019-06-01T15:44:43.594Z,33.67
2019-06-01T15:47:14.727Z,33.67
2019-06-01T15:49:48.166Z,33.69
2019-06-01T15:52:19.749Z,33.63
2019-06-01T15:54:52.116Z,33.43
2019-06-01T15:57:25.410Z,33.48
2019-06-01T15:59:57.020Z,33.49
2019-06-01T16:02:28.391Z,33.40
2019-06-01T16:05:01.237Z,33.48
2019-06-01T16:07:32.665Z,33.38
2019-06-01T16:10:07.601Z,33.54
2019-06-01T16:12:38.490Z,33.49
2019-06-01T16:15:11.044Z,33.48
2019-06-01T16:17:42.375Z,33.43
2019-06-01T16:20:13.952Z,33.23
2019-06-01T16:22:45.227Z,33.32
2019-06-01T16:25:19.176Z,33.32
2019-06-01T16:27:50.616Z,33.23
2019-06-01T16:30:22.069Z,33.24
2019-06-01T16:32:54.676Z,33.38
2019-06-01T16:35:26.118Z,33.41
2019-06-01T16:37:58.917Z,33.39
2019-06-01T16:40:30.724Z,33.46
2019-06-01T16:43:01.961Z,33.47
2019-06-01T16:45:33.363Z,33.50
2019-06-01T16:48:06.404Z,33.57
2019-06-01T16:50:39.240Z,33.73
2019-06-01T16:53:10.716Z,33.75
2019-06-01T16:55:42.008Z,33.78
2019-06-01T16:58:13.353Z,33.85
2019-06-01T17:00:44.725Z,33.91
2019-06-01T17:03:16.525Z,33.94
2019-06-01T17:05:48.385Z,34.04
2019-06-01T17:08:20.465Z,34.10
2019-06-01T17:10:52.373Z,34.12
2019-06-01T17:13:26.920Z,34.24
2019-06-01T17:15:58.926Z,34.30
2019-06-01T17:18:31.407Z,34.36
2019-06-01T17:21:03.530Z,34.34
2019-06-01T17:23:34.853Z,34.37
2019-06-01T17:26:06.991Z,34.38
2019-06-01T17:28:38.937Z,34.41
2019-06-01T17:31:10.297Z,34.41
2019-06-01T17:33:41.590Z,34.38
2019-06-01T17:36:12.843Z,34.35
2019-06-01T17:38:44.082Z,34.22
2019-06-01T17:41:15.350Z,34.11
2019-06-01T17:43:46.827Z,34.03
2019-06-01T17:46:18.070Z,33.91
2019-06-01T17:48:49.334Z,33.79
2019-06-01T17:51:22.971Z,33.66
2019-06-01T17:53:54.832Z,33.62
2019-06-01T17:56:26.656Z,33.63
2019-06-01T17:58:58.244Z,33.66
2019-06-01T18:01:30.703Z,33.69
2019-06-01T18:04:02.019Z,33.70
2019-06-01T18:06:33.586Z,33.74
2019-06-01T18:09:06.085Z,33.77
2019-06-01T18:11:38.934Z,33.83
2019-06-01T18:14:10.813Z,33.91
2019-06-01T18:16:42.169Z,34.04
2019-06-01T18:19:13.577Z,34.21
2019-06-01T18:21:45.295Z,34.35
2019-06-01T18:24:17.592Z,34.46
2019-06-01T18:26:49.769Z,34.60
2019-06-01T18:29:22.194Z,34.64
2019-06-01T18:31:54.415Z,34.84
2019-06-01T18:34:25.707Z,34.92
2019-06-01T18:36:57.236Z,35.08
2019-06-01T18:39:28.452Z,34.03
2019-06-01T18:41:59.793Z,34.71
2019-06-01T18:44:31.117Z,34.99
2019-06-01T18:47:03.598Z,35.16
2019-06-01T18:49:34.961Z,35.34
2019-06-01T18:52:06.481Z,35.52
2019-06-01T18:54:37.990Z,35.68
2019-06-01T18:57:16.747Z,35.81
2019-06-01T18:59:42.154Z,35.91
2019-06-01T19:02:14.551Z,35.99
2019-06-01T19:04:45.776Z,36.05
2019-06-01T19:07:17.070Z,36.16
2019-06-01T19:09:48.276Z,36.29
2019-06-01T19:12:19.558Z,36.40
2019-06-01T19:14:50.817Z,36.50
2019-06-01T19:17:22.089Z,36.62
2019-06-01T19:19:53.424Z,36.70
2019-06-01T19:22:24.722Z,35.68
2019-06-01T19:24:55.966Z,36.33
2019-06-01T19:27:27.186Z,36.61
2019-06-01T19:29:59.571Z,36.79
2019-06-01T19:32:31.169Z,36.95
2019-06-01T19:35:02.550Z,37.10
2019-06-01T19:37:38.653Z,37.27
2019-06-01T19:40:09.417Z,37.36
2019-06-01T19:42:40.734Z,37.47
2019-06-01T19:45:22.589Z,37.59
2019-06-01T19:47:45.213Z,37.69
2019-06-01T19:50:18.397Z,37.81
2019-06-01T19:52:49.975Z,37.93
2019-06-01T19:55:21.219Z,38.10
2019-06-01T19:57:53.178Z,38.19
2019-06-01T20:00:24.523Z,37.88
2019-06-01T20:02:55.882Z,38.29
2019-06-01T20:05:27.179Z,38.36
2019-06-01T20:07:58.645Z,38.43
2019-06-01T20:10:29.918Z,38.53
2019-06-01T20:13:01.522Z,38.68
2019-06-01T20:15:32.852Z,38.91
2019-06-01T20:18:04.475Z,39.06
2019-06-01T20:20:35.822Z,39.22
2019-06-01T20:23:06.998Z,39.42
2019-06-01T20:25:38.140Z,39.61
2019-06-01T20:28:09.684Z,39.88
2019-06-01T20:30:40.953Z,40.17
2019-06-01T20:33:12.261Z,40.46
2019-06-01T20:35:43.618Z,40.74
2019-06-01T20:38:16.390Z,40.97
2019-06-01T20:40:47.993Z,41.16
2019-06-01T20:43:20.690Z,41.32
2019-06-01T20:45:56.675Z,41.50
2019-06-01T20:48:26.479Z,41.61
2019-06-01T20:50:58.839Z,41.75
2019-06-01T20:53:30.144Z,41.88
2019-06-01T20:56:01.360Z,42.06
2019-06-01T20:58:32.657Z,42.25
2019-06-01T21:01:03.940Z,42.42
2019-06-01T21:03:35.740Z,42.55
2019-06-01T21:06:07.109Z,42.67
2019-06-01T21:08:38.502Z,42.79
2019-06-01T21:11:10.199Z,42.83
2019-06-01T21:13:41.411Z,43.02
2019-06-01T21:16:12.620Z,43.15
2019-06-01T21:18:44.023Z,43.23
2019-06-01T21:21:16.326Z,43.33
2019-06-01T21:23:47.960Z,43.40
2019-06-01T21:26:19.223Z,43.47
2019-06-01T21:28:51.635Z,43.54
2019-06-01T21:31:23.254Z,43.66
2019-06-01T21:33:54.473Z,43.77
2019-06-01T21:36:25.881Z,43.89
2019-06-01T21:38:57.160Z,43.99
2019-06-01T21:41:28.360Z,44.08
2019-06-01T21:43:59.625Z,44.22
2019-06-01T21:46:30.900Z,44.38
2019-06-01T21:49:02.229Z,44.54
2019-06-01T21:51:33.495Z,44.75
2019-06-01T21:54:04.689Z,44.90
2019-06-01T21:56:35.860Z,45.08
2019-06-01T21:59:07.041Z,45.94
2019-06-01T22:01:38.476Z,46.08
2019-06-01T22:04:09.707Z,46.09
2019-06-01T22:06:41.021Z,46.06
2019-06-01T22:09:12.205Z,46.06
2019-06-01T22:11:43.453Z,46.03
2019-06-01T22:14:14.740Z,46.01
2019-06-01T22:16:45.970Z,46.00
2019-06-01T22:19:17.531Z,46.01
2019-06-01T22:21:49.002Z,46.05
2019-06-01T22:24:20.284Z,46.11
2019-06-01T22:26:51.593Z,46.14
2019-06-01T22:29:22.824Z,46.17
2019-06-01T22:31:53.979Z,46.37
2019-06-01T22:34:25.210Z,46.66
2019-06-01T22:36:56.429Z,46.68
2019-06-01T22:39:28.914Z,46.69
2019-06-01T22:42:00.260Z,46.69
2019-06-01T22:44:32.425Z,46.60
2019-06-01T22:47:03.706Z,46.52
2019-06-01T22:49:34.885Z,46.39
2019-06-01T22:52:06.092Z,46.37
2019-06-01T22:54:37.398Z,46.32
2019-06-01T22:57:08.620Z,46.31
2019-06-01T22:59:39.737Z,46.30
2019-06-01T23:02:12.207Z,46.35
2019-06-01T23:04:43.384Z,46.40
2019-06-01T23:07:14.648Z,46.48
2019-06-01T23:09:45.848Z,46.56
2019-06-01T23:12:17.033Z,46.56
2019-06-01T23:14:48.332Z,46.53
2019-06-01T23:17:19.604Z,46.52
2019-06-01T23:19:50.794Z,46.61
2019-06-01T23:22:21.973Z,46.74
2019-06-01T23:24:53.786Z,46.87
2019-06-01T23:27:25.852Z,47.08
2019-06-01T23:29:58.402Z,47.42
2019-06-01T23:32:30.685Z,47.46
2019-06-01T23:35:01.970Z,47.50
2019-06-01T23:37:33.283Z,47.78
2019-06-01T23:40:04.682Z,48.43
2019-06-01T23:42:35.931Z,48.77
2019-06-01T23:45:07.258Z,48.72
2019-06-01T23:47:38.486Z,48.65
2019-06-01T23:50:09.723Z,49.08
2019-06-01T23:52:40.882Z,49.08
2019-06-01T23:55:12.068Z,49.05
2019-06-01T23:57:43.212Z,49.00
